首页
METAR-TAF:

METAR-TAF

机场 :

拉紹德封, 瑞士

纬度: 47-05-03N, 经度: 006-47-37E, 海拔: 1027米

当前天气观测

该预报发布于37分钟前的00:50 UTC
风速4节,风向西南
温度 9°C
湿度 71%
气压 1017 hPa
能见度10公里或以上
1500米以下无云,无积雨云

METAR: LSGC 170050Z AUTO 22004KT CAVOK 09/04 Q1017

时间: 03:27 (01:27 UTC)

预报

该预报发布于11小时和2分钟前的14:25 UTC
预报有效从16日的 15点(UTC)到 16日的 24点(UTC)
风速5节,风向西转西南
能见度10公里或以上
1500米以下无云,无积雨云

TAF: LSGC 161425Z 1615/1624 25005KT CAVOK

超过4000个机场的气象观测和天气预报(METAR&TAF报告)。

可查询的气象台以黄色和红色小点在地图上表示。

将鼠标移到小点上方,可查看气象台名称。

然后点击查看天气观测和预报。

如需切换地图:点击带黑十字的绿色按钮放大地图;点击带横线的绿色按钮缩小地图;或者点击绿色箭头查看邻近地区的地图。


METAR-TAF: